Cheney, Kansas
Current Conditions -  °F | °C
As of 11:53 PM on Wednesday 22 Oct 2014 (Local Time) from KICT Reporting Station
Broken Clouds Broken Clouds  
Wind Chill: 65°   Ceiling: 11000
Heat Index: 65°   Visibility: 10mi
Dew Point: 57°   Wind: 12mph
Humidity: 75%   Direction: 200°SSW
Pressure: 30.09"   Gusts: NA
Location:  37.63°N, 97.78°W
Report Text: KICT 230453Z 20010KT 10SM FEW040 FEW060 BKN110 18/14 A3009 RMK AO2 RAB03E10 SLP179 P0000 T01830139
Loading
Personal Weather Stations






























Interactive Weather Map
Tropical Storm Tracking
New forecast layout! Learn more

10-Day Weather Forecast

Advertisements
Track Severe Weather on mobile